JTC427 KBED-TTCP
Flight info
| Callsign | JTC427 |
|---|---|
| Flight time | N/A |
| Altitude | 37000 |
| Route | BOS DCT MVY DCT CLAMY DCT TILED/M080F370 DCT AWSOM DCT 24N060W/M080F400 DCT KAVAX/N0457F400 DCT FAMPS DCT TAB |
| Aircraft | CL60/M-SADE3FGHIJ3J4J7P2RWXY/HB1D1 |
Departure
| Time | N/A |
|---|---|
| Airport | Laurence G Hanscom Field (KBED) |
Arrival
| Time | 2026-04-17 19:33 |
|---|---|
| Airport | A.N.R. Robinson International Airport (TTCP) |
| Time | Latitude | Longitude | Altitude | Speed | Heading |
|---|---|---|---|---|---|
| 2026-04-17 16:38 | 30.38024 | -65.01910 | 37163 ft | 479 kts | 142° |
| 2026-04-17 16:38 | 30.35311 | -64.99612 | 37165 ft | 479 kts | 142° |
| 2026-04-17 16:39 | 30.29918 | -64.95052 | 37162 ft | 479 kts | 142° |
| 2026-04-17 16:39 | 30.24536 | -64.90507 | 37162 ft | 479 kts | 142° |
| 2026-04-17 16:40 | 30.19148 | -64.85963 | 37165 ft | 479 kts | 142° |
| 2026-04-17 16:40 | 30.13780 | -64.81442 | 37162 ft | 479 kts | 142° |
| 2026-04-17 16:41 | 30.08385 | -64.76905 | 37161 ft | 479 kts | 142° |
| 2026-04-17 16:41 | 30.02994 | -64.72377 | 37160 ft | 479 kts | 142° |
| 2026-04-17 16:42 | 29.97599 | -64.67852 | 37160 ft | 479 kts | 142° |
| 2026-04-17 16:42 | 29.92189 | -64.63321 | 37165 ft | 478 kts | 142° |
| 2026-04-17 16:43 | 29.86809 | -64.58820 | 37173 ft | 477 kts | 141° |
| 2026-04-17 16:43 | 29.81439 | -64.54334 | 37175 ft | 477 kts | 142° |
| 2026-04-17 16:44 | 29.76064 | -64.49850 | 37170 ft | 478 kts | 142° |
| 2026-04-17 16:44 | 29.70661 | -64.45348 | 37172 ft | 478 kts | 141° |
| 2026-04-17 16:45 | 29.65280 | -64.40871 | 37172 ft | 478 kts | 141° |
| 2026-04-17 16:45 | 29.59879 | -64.36383 | 37173 ft | 478 kts | 141° |
| 2026-04-17 16:46 | 29.54473 | -64.31897 | 37172 ft | 478 kts | 142° |
| 2026-04-17 16:46 | 29.49093 | -64.27439 | 37172 ft | 478 kts | 142° |
| 2026-04-17 16:47 | 29.43668 | -64.22948 | 37175 ft | 478 kts | 142° |
| 2026-04-17 16:47 | 29.38307 | -64.18518 | 37175 ft | 478 kts | 142° |
| 2026-04-17 16:48 | 29.32885 | -64.14043 | 37175 ft | 478 kts | 142° |
| 2026-04-17 16:48 | 29.27482 | -64.09589 | 37177 ft | 479 kts | 142° |
| 2026-04-17 16:49 | 29.22075 | -64.05137 | 37176 ft | 478 kts | 142° |
| 2026-04-17 16:49 | 29.16683 | -64.00705 | 37174 ft | 478 kts | 142° |
| 2026-04-17 16:50 | 29.11316 | -63.96298 | 37173 ft | 478 kts | 142° |
| 2026-04-17 16:50 | 29.05877 | -63.91838 | 37174 ft | 478 kts | 142° |
| 2026-04-17 16:51 | 29.00457 | -63.87400 | 37170 ft | 479 kts | 142° |
| 2026-04-17 16:51 | 28.95033 | -63.82964 | 37176 ft | 479 kts | 142° |
| 2026-04-17 16:52 | 28.89632 | -63.78552 | 37177 ft | 479 kts | 142° |
| 2026-04-17 16:52 | 28.84214 | -63.74133 | 37176 ft | 478 kts | 142° |
| 2026-04-17 16:53 | 28.78783 | -63.69708 | 37176 ft | 478 kts | 142° |
| 2026-04-17 16:53 | 28.73373 | -63.65306 | 37174 ft | 479 kts | 142° |
| 2026-04-17 16:54 | 28.67963 | -63.60911 | 37173 ft | 479 kts | 142° |
| 2026-04-17 16:54 | 28.62505 | -63.56482 | 37177 ft | 478 kts | 142° |
| 2026-04-17 16:55 | 28.57119 | -63.52116 | 37175 ft | 478 kts | 142° |
| 2026-04-17 16:55 | 28.51685 | -63.47718 | 37175 ft | 478 kts | 141° |
| 2026-04-17 16:56 | 28.46249 | -63.43323 | 37174 ft | 479 kts | 142° |
| 2026-04-17 16:56 | 28.40821 | -63.38941 | 37174 ft | 479 kts | 142° |
| 2026-04-17 16:57 | 28.35399 | -63.34569 | 37176 ft | 479 kts | 142° |
| 2026-04-17 16:57 | 28.29972 | -63.30199 | 37172 ft | 479 kts | 142° |
| 2026-04-17 16:58 | 28.24553 | -63.25840 | 37170 ft | 479 kts | 142° |
| 2026-04-17 16:58 | 28.19105 | -63.21464 | 37173 ft | 479 kts | 142° |
| 2026-04-17 16:59 | 28.13650 | -63.17088 | 37172 ft | 479 kts | 142° |
| 2026-04-17 16:59 | 28.08225 | -63.12740 | 37173 ft | 479 kts | 142° |
| 2026-04-17 17:00 | 28.02764 | -63.08371 | 37173 ft | 479 kts | 142° |
| 2026-04-17 17:00 | 27.97322 | -63.04022 | 37174 ft | 479 kts | 142° |
| 2026-04-17 17:01 | 27.91886 | -62.99682 | 37167 ft | 479 kts | 142° |
| 2026-04-17 17:01 | 27.86372 | -62.95287 | 37173 ft | 479 kts | 142° |
| 2026-04-17 17:02 | 27.80921 | -62.90947 | 37167 ft | 479 kts | 142° |
| 2026-04-17 17:02 | 27.75457 | -62.86602 | 37164 ft | 479 kts | 142° |
| 2026-04-17 17:03 | 27.70006 | -62.82273 | 37169 ft | 478 kts | 142° |
| 2026-04-17 17:03 | 27.64507 | -62.77911 | 37159 ft | 478 kts | 142° |
| 2026-04-17 17:04 | 27.59084 | -62.73615 | 37151 ft | 478 kts | 142° |
| 2026-04-17 17:04 | 27.53608 | -62.69282 | 37150 ft | 478 kts | 142° |
| 2026-04-17 17:05 | 27.48165 | -62.64981 | 37156 ft | 478 kts | 142° |
| 2026-04-17 17:05 | 27.42729 | -62.60690 | 37153 ft | 477 kts | 142° |
| 2026-04-17 17:06 | 27.37258 | -62.56378 | 37148 ft | 477 kts | 142° |
| 2026-04-17 17:06 | 27.31819 | -62.52096 | 37150 ft | 477 kts | 142° |
| 2026-04-17 17:07 | 27.26355 | -62.47799 | 37146 ft | 477 kts | 142° |
| 2026-04-17 17:07 | 27.20916 | -62.43528 | 37147 ft | 477 kts | 142° |
| 2026-04-17 17:08 | 27.15467 | -62.39253 | 37149 ft | 477 kts | 142° |
| 2026-04-17 17:08 | 27.10022 | -62.34987 | 37146 ft | 476 kts | 142° |
| 2026-04-17 17:09 | 27.04560 | -62.30713 | 37150 ft | 476 kts | 142° |
| 2026-04-17 17:09 | 26.99133 | -62.26472 | 37151 ft | 475 kts | 142° |
| 2026-04-17 17:10 | 26.93650 | -62.22192 | 37153 ft | 475 kts | 143° |
| 2026-04-17 17:10 | 26.88236 | -62.17970 | 37155 ft | 476 kts | 143° |
| 2026-04-17 17:11 | 26.82787 | -62.13726 | 37147 ft | 475 kts | 143° |
| 2026-04-17 17:11 | 26.77344 | -62.09493 | 37151 ft | 476 kts | 143° |
| 2026-04-17 17:12 | 26.71881 | -62.05249 | 37147 ft | 475 kts | 143° |
| 2026-04-17 17:12 | 26.66425 | -62.01015 | 37146 ft | 475 kts | 143° |
| 2026-04-17 17:13 | 26.60986 | -61.96801 | 37147 ft | 474 kts | 143° |
| 2026-04-17 17:13 | 26.55545 | -61.92588 | 37149 ft | 474 kts | 143° |
| 2026-04-17 17:14 | 26.50113 | -61.88388 | 37149 ft | 474 kts | 143° |
| 2026-04-17 17:15 | 26.41937 | -61.82076 | 37144 ft | 474 kts | 143° |
| 2026-04-17 17:15 | 26.36471 | -61.77862 | 37139 ft | 474 kts | 143° |
| 2026-04-17 17:16 | 26.31047 | -61.73685 | 37136 ft | 474 kts | 143° |
| 2026-04-17 17:16 | 26.25605 | -61.69500 | 37133 ft | 474 kts | 143° |
| 2026-04-17 17:17 | 26.20160 | -61.65317 | 37133 ft | 473 kts | 143° |
| 2026-04-17 17:17 | 26.14739 | -61.61158 | 37136 ft | 473 kts | 143° |
| 2026-04-17 17:18 | 26.09252 | -61.56953 | 37137 ft | 472 kts | 143° |
| 2026-04-17 17:18 | 26.03875 | -61.52836 | 37135 ft | 472 kts | 143° |
| 2026-04-17 17:19 | 25.98419 | -61.48664 | 37131 ft | 472 kts | 143° |
| 2026-04-17 17:19 | 25.92977 | -61.44508 | 37138 ft | 472 kts | 143° |
| 2026-04-17 17:20 | 25.87559 | -61.40374 | 37133 ft | 472 kts | 143° |
| 2026-04-17 17:20 | 25.82141 | -61.36245 | 37135 ft | 472 kts | 144° |
| 2026-04-17 17:21 | 25.76674 | -61.32084 | 37134 ft | 473 kts | 144° |
| 2026-04-17 17:21 | 25.71236 | -61.27949 | 37139 ft | 473 kts | 144° |
| 2026-04-17 17:22 | 25.65807 | -61.23826 | 37132 ft | 472 kts | 144° |
| 2026-04-17 17:22 | 25.60356 | -61.19691 | 37138 ft | 473 kts | 144° |
| 2026-04-17 17:23 | 25.54904 | -61.15560 | 37138 ft | 473 kts | 145° |
| 2026-04-17 17:23 | 25.49470 | -61.11447 | 37134 ft | 473 kts | 145° |
| 2026-04-17 17:24 | 25.44025 | -61.07331 | 37129 ft | 473 kts | 145° |
| 2026-04-17 17:24 | 25.38541 | -61.03189 | 37129 ft | 473 kts | 145° |
| 2026-04-17 17:25 | 25.33134 | -60.99111 | 37133 ft | 473 kts | 145° |
| 2026-04-17 17:25 | 25.27664 | -60.94989 | 37134 ft | 472 kts | 145° |
| 2026-04-17 17:26 | 25.22222 | -60.90894 | 37133 ft | 472 kts | 146° |
| 2026-04-17 17:26 | 25.16787 | -60.86808 | 37134 ft | 472 kts | 146° |
| 2026-04-17 17:27 | 25.11343 | -60.82719 | 37134 ft | 472 kts | 146° |
| 2026-04-17 17:27 | 25.05906 | -60.78640 | 37134 ft | 472 kts | 146° |
| 2026-04-17 17:28 | 25.00470 | -60.74567 | 37135 ft | 472 kts | 146° |
| 2026-04-17 17:28 | 24.95033 | -60.70497 | 37131 ft | 471 kts | 146° |
| 2026-04-17 17:29 | 24.89577 | -60.66417 | 37132 ft | 471 kts | 146° |
| 2026-04-17 17:29 | 24.84126 | -60.62345 | 37124 ft | 472 kts | 147° |
| 2026-04-17 17:30 | 24.78688 | -60.58289 | 37131 ft | 473 kts | 147° |
| 2026-04-17 17:30 | 24.73247 | -60.54234 | 37127 ft | 473 kts | 147° |
| 2026-04-17 17:31 | 24.67778 | -60.50162 | 37119 ft | 473 kts | 147° |
| 2026-04-17 17:31 | 24.62316 | -60.46100 | 37121 ft | 474 kts | 147° |
| 2026-04-17 17:32 | 24.56839 | -60.42031 | 37121 ft | 474 kts | 148° |
| 2026-04-17 17:32 | 24.51377 | -60.37977 | 37119 ft | 473 kts | 148° |
| 2026-04-17 17:33 | 24.45900 | -60.33918 | 37121 ft | 473 kts | 148° |
| 2026-04-17 17:33 | 24.40448 | -60.29880 | 37116 ft | 473 kts | 149° |
| 2026-04-17 17:34 | 24.35003 | -60.25853 | 37117 ft | 473 kts | 149° |
| 2026-04-17 17:34 | 24.29503 | -60.21789 | 37104 ft | 473 kts | 149° |
| 2026-04-17 17:35 | 24.24079 | -60.17785 | 37104 ft | 473 kts | 149° |
| 2026-04-17 17:35 | 24.18588 | -60.13736 | 37103 ft | 473 kts | 149° |
| 2026-04-17 17:36 | 24.13122 | -60.09710 | 37096 ft | 473 kts | 149° |
| 2026-04-17 17:36 | 24.07649 | -60.05683 | 37096 ft | 473 kts | 150° |
| 2026-04-17 17:37 | 24.01931 | -60.02229 | 37092 ft | 465 kts | 162° |
| 2026-04-17 17:37 | 23.95796 | -60.00367 | 37094 ft | 456 kts | 175° |
| 2026-04-17 17:38 | 23.89516 | -60.00002 | 37088 ft | 449 kts | 185° |
| 2026-04-17 17:38 | 23.83235 | -60.00016 | 37093 ft | 449 kts | 185° |
| 2026-04-17 17:39 | 23.76947 | -60.00023 | 37094 ft | 449 kts | 185° |
| 2026-04-17 17:39 | 23.70706 | -60.00028 | 37094 ft | 450 kts | 185° |
| 2026-04-17 17:40 | 23.64420 | -60.00031 | 37096 ft | 449 kts | 185° |
| 2026-04-17 17:40 | 23.58173 | -60.00033 | 37093 ft | 449 kts | 185° |
| 2026-04-17 17:41 | 23.51920 | -60.00034 | 37095 ft | 449 kts | 185° |
| 2026-04-17 17:41 | 23.45635 | -60.00035 | 37091 ft | 449 kts | 185° |
| 2026-04-17 17:42 | 23.39359 | -60.00035 | 37091 ft | 448 kts | 185° |
| 2026-04-17 17:42 | 23.33084 | -60.00034 | 37091 ft | 448 kts | 185° |
| 2026-04-17 17:43 | 23.26848 | -60.00034 | 37094 ft | 448 kts | 185° |
| 2026-04-17 17:43 | 23.20603 | -60.00033 | 37093 ft | 447 kts | 185° |
| 2026-04-17 17:44 | 23.14352 | -60.00032 | 37093 ft | 447 kts | 185° |
| 2026-04-17 17:44 | 23.08082 | -60.00031 | 37087 ft | 448 kts | 185° |
| 2026-04-17 17:45 | 23.01825 | -60.00031 | 37093 ft | 448 kts | 185° |
| 2026-04-17 17:45 | 22.95624 | -60.00427 | 37086 ft | 444 kts | 191° |
| 2026-04-17 17:46 | 22.89494 | -60.01064 | 37076 ft | 443 kts | 191° |
| 2026-04-17 17:46 | 22.83327 | -60.01699 | 37074 ft | 443 kts | 191° |
| 2026-04-17 17:47 | 22.77183 | -60.02329 | 37070 ft | 443 kts | 191° |
| 2026-04-17 17:47 | 22.71033 | -60.02958 | 37072 ft | 442 kts | 191° |
| 2026-04-17 17:48 | 22.64905 | -60.03582 | 37072 ft | 442 kts | 191° |
| 2026-04-17 17:48 | 22.58781 | -60.04205 | 37070 ft | 442 kts | 191° |
| 2026-04-17 17:49 | 22.52884 | -60.04803 | 37072 ft | 441 kts | 191° |
| 2026-04-17 17:49 | 22.46753 | -60.05424 | 37068 ft | 441 kts | 191° |
| 2026-04-17 17:50 | 22.40657 | -60.06041 | 37071 ft | 440 kts | 191° |
| 2026-04-17 17:50 | 22.34527 | -60.06660 | 37072 ft | 440 kts | 191° |
| 2026-04-17 17:51 | 22.28416 | -60.07277 | 37072 ft | 440 kts | 191° |
| 2026-04-17 17:51 | 22.22327 | -60.07891 | 37070 ft | 439 kts | 191° |
| 2026-04-17 17:52 | 22.16225 | -60.08506 | 37071 ft | 439 kts | 191° |
| 2026-04-17 17:52 | 22.10145 | -60.09117 | 37072 ft | 439 kts | 192° |
| 2026-04-17 17:53 | 22.04028 | -60.09733 | 37071 ft | 439 kts | 192° |
| 2026-04-17 17:53 | 21.97930 | -60.10345 | 37069 ft | 439 kts | 192° |
| 2026-04-17 17:54 | 21.91841 | -60.10957 | 37069 ft | 439 kts | 192° |
| 2026-04-17 17:54 | 21.85738 | -60.11568 | 37068 ft | 438 kts | 192° |
| 2026-04-17 17:55 | 21.79666 | -60.12177 | 37064 ft | 437 kts | 192° |
| 2026-04-17 17:55 | 21.73629 | -60.12781 | 37065 ft | 437 kts | 192° |
| 2026-04-17 17:56 | 21.67571 | -60.13388 | 37062 ft | 437 kts | 192° |
| 2026-04-17 17:56 | 21.61482 | -60.13996 | 37061 ft | 436 kts | 192° |
| 2026-04-17 17:57 | 21.55439 | -60.14600 | 37061 ft | 435 kts | 192° |
| 2026-04-17 17:57 | 21.49383 | -60.15205 | 37058 ft | 435 kts | 193° |
| 2026-04-17 17:58 | 21.43349 | -60.15807 | 37054 ft | 435 kts | 192° |
| 2026-04-17 17:58 | 21.37348 | -60.16405 | 37052 ft | 434 kts | 193° |
| 2026-04-17 17:59 | 21.31323 | -60.17005 | 37055 ft | 433 kts | 193° |
| 2026-04-17 17:59 | 21.25294 | -60.17605 | 37051 ft | 434 kts | 193° |
| 2026-04-17 18:00 | 21.19293 | -60.18202 | 37049 ft | 434 kts | 193° |
| 2026-04-17 18:00 | 21.13286 | -60.18799 | 37047 ft | 433 kts | 193° |
| 2026-04-17 18:01 | 21.07268 | -60.19396 | 37048 ft | 433 kts | 193° |
| 2026-04-17 18:01 | 21.01273 | -60.19991 | 37052 ft | 432 kts | 193° |
| 2026-04-17 18:02 | 20.95238 | -60.20589 | 37042 ft | 431 kts | 193° |
| 2026-04-17 18:02 | 20.89255 | -60.21182 | 37040 ft | 430 kts | 193° |
| 2026-04-17 18:03 | 20.83303 | -60.21771 | 37046 ft | 429 kts | 193° |
| 2026-04-17 18:03 | 20.77327 | -60.22361 | 37038 ft | 427 kts | 193° |
| 2026-04-17 18:04 | 20.71403 | -60.22947 | 37044 ft | 426 kts | 193° |
| 2026-04-17 18:04 | 20.65479 | -60.23533 | 37043 ft | 426 kts | 193° |
| 2026-04-17 18:05 | 20.59560 | -60.24117 | 37041 ft | 426 kts | 194° |
| 2026-04-17 18:05 | 20.53627 | -60.24703 | 37043 ft | 425 kts | 194° |
| 2026-04-17 18:06 | 20.47688 | -60.25288 | 37036 ft | 425 kts | 194° |
| 2026-04-17 18:06 | 20.41783 | -60.25870 | 37041 ft | 425 kts | 193° |
| 2026-04-17 18:07 | 20.35873 | -60.26452 | 37042 ft | 425 kts | 194° |
| 2026-04-17 18:07 | 20.29972 | -60.27032 | 37036 ft | 425 kts | 194° |
| 2026-04-17 18:08 | 20.24046 | -60.27614 | 37037 ft | 424 kts | 194° |
| 2026-04-17 18:08 | 20.18159 | -60.28193 | 37032 ft | 424 kts | 193° |
| 2026-04-17 18:09 | 20.12276 | -60.28770 | 37032 ft | 424 kts | 194° |
| 2026-04-17 18:09 | 20.06354 | -60.29351 | 37033 ft | 424 kts | 193° |
| 2026-04-17 18:10 | 20.00503 | -60.29923 | 37034 ft | 423 kts | 194° |
| 2026-04-17 18:10 | 19.94634 | -60.30498 | 37031 ft | 422 kts | 194° |
| 2026-04-17 18:11 | 19.88783 | -60.31071 | 37030 ft | 422 kts | 194° |
| 2026-04-17 18:11 | 19.82901 | -60.31646 | 37026 ft | 421 kts | 194° |
| 2026-04-17 18:12 | 19.77076 | -60.32216 | 37025 ft | 420 kts | 194° |
| 2026-04-17 18:12 | 19.71233 | -60.32786 | 37023 ft | 419 kts | 194° |
| 2026-04-17 18:13 | 19.65393 | -60.33356 | 37019 ft | 418 kts | 194° |
| 2026-04-17 18:13 | 19.59609 | -60.33920 | 37015 ft | 418 kts | 194° |
| 2026-04-17 18:14 | 19.53776 | -60.34490 | 37012 ft | 418 kts | 194° |
| 2026-04-17 18:14 | 19.47985 | -60.35053 | 37009 ft | 416 kts | 194° |
| 2026-04-17 18:15 | 19.42209 | -60.35616 | 37008 ft | 415 kts | 194° |
| 2026-04-17 18:15 | 19.36418 | -60.36180 | 37002 ft | 415 kts | 194° |
| 2026-04-17 18:16 | 19.30651 | -60.36741 | 36997 ft | 415 kts | 194° |
| 2026-04-17 18:16 | 19.24888 | -60.37301 | 36994 ft | 413 kts | 194° |
| 2026-04-17 18:17 | 19.19139 | -60.37859 | 36991 ft | 412 kts | 194° |
| 2026-04-17 18:17 | 19.10588 | -60.38689 | 36995 ft | 411 kts | 194° |
| 2026-04-17 18:18 | 19.04846 | -60.39247 | 36991 ft | 411 kts | 194° |
| 2026-04-17 18:18 | 18.99142 | -60.39801 | 36991 ft | 411 kts | 194° |
| 2026-04-17 18:19 | 18.93403 | -60.40357 | 36987 ft | 411 kts | 194° |
| 2026-04-17 18:19 | 18.87679 | -60.40911 | 36986 ft | 409 kts | 194° |
| 2026-04-17 18:20 | 18.81995 | -60.41461 | 36989 ft | 409 kts | 195° |
| 2026-04-17 18:20 | 18.76310 | -60.42011 | 36986 ft | 409 kts | 194° |
| 2026-04-17 18:21 | 18.70614 | -60.42562 | 36985 ft | 409 kts | 194° |
| 2026-04-17 18:21 | 18.64948 | -60.43109 | 36986 ft | 408 kts | 194° |
| 2026-04-17 18:22 | 18.59286 | -60.43656 | 36984 ft | 408 kts | 194° |
| 2026-04-17 18:22 | 18.53603 | -60.44205 | 36986 ft | 408 kts | 194° |
| 2026-04-17 18:23 | 18.47936 | -60.44751 | 36988 ft | 408 kts | 194° |
| 2026-04-17 18:23 | 18.42239 | -60.45300 | 36988 ft | 408 kts | 194° |
| 2026-04-17 18:24 | 18.36591 | -60.45844 | 36988 ft | 406 kts | 194° |
| 2026-04-17 18:24 | 18.30929 | -60.46389 | 36990 ft | 407 kts | 194° |
| 2026-04-17 18:25 | 18.25281 | -60.46932 | 36992 ft | 407 kts | 194° |
| 2026-04-17 18:25 | 18.19628 | -60.47475 | 36991 ft | 406 kts | 194° |
| 2026-04-17 18:26 | 18.13977 | -60.48018 | 36990 ft | 406 kts | 194° |
| 2026-04-17 18:26 | 18.08347 | -60.48559 | 36990 ft | 406 kts | 194° |
| 2026-04-17 18:27 | 18.02695 | -60.49101 | 36989 ft | 405 kts | 194° |
| 2026-04-17 18:27 | 17.97083 | -60.49639 | 36989 ft | 404 kts | 194° |
| 2026-04-17 18:28 | 17.91502 | -60.50173 | 36985 ft | 403 kts | 194° |
| 2026-04-17 18:28 | 17.85861 | -60.50714 | 36984 ft | 404 kts | 194° |
| 2026-04-17 18:29 | 17.80478 | -60.51231 | 36992 ft | 403 kts | 194° |
| 2026-04-17 18:29 | 17.74886 | -60.51765 | 36981 ft | 404 kts | 194° |
| 2026-04-17 18:30 | 17.69256 | -60.52303 | 36985 ft | 405 kts | 194° |
| 2026-04-17 18:30 | 17.63625 | -60.52841 | 36981 ft | 405 kts | 194° |
| 2026-04-17 18:31 | 17.58017 | -60.53376 | 36980 ft | 405 kts | 194° |
| 2026-04-17 18:31 | 17.52411 | -60.53910 | 36978 ft | 405 kts | 194° |
| 2026-04-17 18:32 | 17.46767 | -60.54448 | 36981 ft | 405 kts | 194° |
| 2026-04-17 18:32 | 17.41128 | -60.54984 | 36977 ft | 405 kts | 193° |
| 2026-04-17 18:33 | 17.35516 | -60.55518 | 36980 ft | 404 kts | 193° |
| 2026-04-17 18:33 | 17.29923 | -60.56049 | 36976 ft | 404 kts | 194° |
| 2026-04-17 18:34 | 17.24304 | -60.56583 | 36973 ft | 404 kts | 194° |
| 2026-04-17 18:34 | 17.18643 | -60.57120 | 36972 ft | 404 kts | 193° |
| 2026-04-17 18:35 | 17.13058 | -60.57649 | 36972 ft | 403 kts | 194° |
| 2026-04-17 18:35 | 17.07480 | -60.58178 | 36965 ft | 403 kts | 193° |
| 2026-04-17 18:36 | 17.01865 | -60.58711 | 36958 ft | 404 kts | 194° |
| 2026-04-17 18:36 | 16.96242 | -60.59243 | 36951 ft | 404 kts | 194° |
| 2026-04-17 18:37 | 16.90600 | -60.59776 | 36944 ft | 405 kts | 194° |
| 2026-04-17 18:37 | 16.84950 | -60.60312 | 36949 ft | 406 kts | 193° |
| 2026-04-17 18:38 | 16.79314 | -60.60843 | 36946 ft | 406 kts | 193° |
| 2026-04-17 18:38 | 16.73675 | -60.61375 | 36946 ft | 406 kts | 193° |
| 2026-04-17 18:39 | 16.68006 | -60.61911 | 36948 ft | 407 kts | 193° |
| 2026-04-17 18:39 | 16.62314 | -60.62308 | 36948 ft | 411 kts | 191° |
| 2026-04-17 18:40 | 16.56622 | -60.62527 | 36947 ft | 410 kts | 190° |
| 2026-04-17 18:40 | 16.50886 | -60.62751 | 36949 ft | 410 kts | 190° |
| 2026-04-17 18:41 | 16.45185 | -60.62974 | 36951 ft | 410 kts | 191° |
| 2026-04-17 18:41 | 16.39450 | -60.63200 | 36955 ft | 410 kts | 190° |
| 2026-04-17 18:42 | 16.33740 | -60.63423 | 36957 ft | 410 kts | 190° |
| 2026-04-17 18:42 | 16.28003 | -60.63650 | 36953 ft | 411 kts | 190° |
| 2026-04-17 18:43 | 16.22277 | -60.63875 | 36952 ft | 412 kts | 190° |
| 2026-04-17 18:43 | 16.16519 | -60.64101 | 36951 ft | 413 kts | 190° |
| 2026-04-17 18:44 | 16.10779 | -60.64326 | 36950 ft | 412 kts | 190° |
| 2026-04-17 18:44 | 16.05034 | -60.64552 | 36952 ft | 412 kts | 189° |
| 2026-04-17 18:45 | 15.99279 | -60.64778 | 36947 ft | 412 kts | 189° |
| 2026-04-17 18:45 | 15.93563 | -60.65002 | 36945 ft | 413 kts | 189° |
| 2026-04-17 18:46 | 15.87800 | -60.65229 | 36945 ft | 413 kts | 189° |
| 2026-04-17 18:46 | 15.82004 | -60.65455 | 36942 ft | 413 kts | 189° |
| 2026-04-17 18:47 | 15.76235 | -60.65681 | 36945 ft | 413 kts | 189° |
| 2026-04-17 18:47 | 15.70474 | -60.65906 | 36945 ft | 413 kts | 189° |
| 2026-04-17 18:48 | 15.64693 | -60.66132 | 36942 ft | 413 kts | 189° |
| 2026-04-17 18:48 | 15.58940 | -60.66357 | 36946 ft | 415 kts | 189° |
| 2026-04-17 18:49 | 15.53149 | -60.66584 | 36947 ft | 415 kts | 189° |
| 2026-04-17 18:49 | 15.47384 | -60.66808 | 36943 ft | 415 kts | 189° |
| 2026-04-17 18:50 | 15.41600 | -60.67034 | 36939 ft | 415 kts | 189° |
| 2026-04-17 18:50 | 15.35823 | -60.67259 | 36935 ft | 416 kts | 189° |
| 2026-04-17 18:51 | 15.30008 | -60.67485 | 36937 ft | 416 kts | 188° |
| 2026-04-17 18:51 | 15.24238 | -60.67710 | 36931 ft | 416 kts | 188° |
| 2026-04-17 18:52 | 15.18448 | -60.67935 | 36929 ft | 416 kts | 188° |
| 2026-04-17 18:52 | 15.12637 | -60.68161 | 36929 ft | 417 kts | 188° |
| 2026-04-17 18:53 | 15.06802 | -60.68387 | 36926 ft | 417 kts | 188° |
| 2026-04-17 18:53 | 15.01023 | -60.68611 | 36927 ft | 417 kts | 188° |
| 2026-04-17 18:54 | 14.95186 | -60.68837 | 36927 ft | 417 kts | 188° |
| 2026-04-17 18:54 | 14.89359 | -60.69063 | 36927 ft | 418 kts | 188° |
| 2026-04-17 18:55 | 14.83535 | -60.69288 | 36925 ft | 418 kts | 188° |
| 2026-04-17 18:55 | 14.77692 | -60.69514 | 36922 ft | 418 kts | 188° |
| 2026-04-17 18:56 | 14.71839 | -60.69740 | 36922 ft | 418 kts | 188° |
| 2026-04-17 18:56 | 14.66045 | -60.69964 | 36923 ft | 418 kts | 188° |
| 2026-04-17 18:57 | 14.60216 | -60.70188 | 36923 ft | 417 kts | 188° |
| 2026-04-17 18:57 | 14.54375 | -60.70414 | 36920 ft | 418 kts | 188° |
| 2026-04-17 18:58 | 14.48573 | -60.70638 | 36919 ft | 419 kts | 188° |
| 2026-04-17 18:58 | 14.42744 | -60.70862 | 36925 ft | 419 kts | 188° |
| 2026-04-17 18:59 | 14.36906 | -60.71087 | 36926 ft | 419 kts | 188° |
| 2026-04-17 18:59 | 14.31034 | -60.71312 | 36927 ft | 419 kts | 188° |
| 2026-04-17 19:00 | 14.25224 | -60.71536 | 36926 ft | 419 kts | 187° |
| 2026-04-17 19:00 | 14.19387 | -60.71759 | 36929 ft | 419 kts | 188° |
| 2026-04-17 19:01 | 14.13556 | -60.71983 | 36928 ft | 419 kts | 188° |
| 2026-04-17 19:01 | 14.07696 | -60.72208 | 36933 ft | 419 kts | 188° |
| 2026-04-17 19:02 | 14.01844 | -60.72433 | 36933 ft | 420 kts | 188° |
| 2026-04-17 19:02 | 13.95981 | -60.72657 | 36932 ft | 420 kts | 188° |
| 2026-04-17 19:03 | 13.90135 | -60.72881 | 36932 ft | 419 kts | 188° |
| 2026-04-17 19:03 | 13.84297 | -60.73104 | 36926 ft | 420 kts | 187° |
| 2026-04-17 19:04 | 13.78483 | -60.73326 | 36926 ft | 420 kts | 188° |
| 2026-04-17 19:04 | 13.72656 | -60.73549 | 36925 ft | 420 kts | 187° |
| 2026-04-17 19:05 | 13.66782 | -60.73773 | 36917 ft | 419 kts | 188° |
| 2026-04-17 19:05 | 13.60944 | -60.73996 | 36915 ft | 419 kts | 187° |
| 2026-04-17 19:06 | 13.55103 | -60.74219 | 36911 ft | 418 kts | 188° |
| 2026-04-17 19:06 | 13.49266 | -60.74441 | 36910 ft | 419 kts | 187° |
| 2026-04-17 19:07 | 13.43431 | -60.74664 | 36906 ft | 419 kts | 187° |
| 2026-04-17 19:07 | 13.37627 | -60.74885 | 36907 ft | 418 kts | 187° |
| 2026-04-17 19:08 | 13.31797 | -60.75108 | 36906 ft | 419 kts | 188° |
| 2026-04-17 19:08 | 13.25957 | -60.75330 | 36907 ft | 420 kts | 187° |
| 2026-04-17 19:09 | 13.20075 | -60.75554 | 36907 ft | 420 kts | 188° |
| 2026-04-17 19:09 | 13.14217 | -60.75777 | 36907 ft | 421 kts | 187° |
| 2026-04-17 19:10 | 13.08379 | -60.75999 | 36905 ft | 420 kts | 188° |
| 2026-04-17 19:10 | 13.02506 | -60.76222 | 36903 ft | 420 kts | 188° |
| 2026-04-17 19:11 | 12.96682 | -60.76443 | 36906 ft | 420 kts | 187° |
| 2026-04-17 19:11 | 12.90798 | -60.76667 | 36402 ft | 420 kts | 187° |
| 2026-04-17 19:12 | 12.87873 | -60.76777 | 35894 ft | 416 kts | 187° |
| 2026-04-17 19:12 | 12.85000 | -60.76885 | 35379 ft | 414 kts | 187° |
| 2026-04-17 19:12 | 12.82096 | -60.76995 | 34844 ft | 414 kts | 187° |
| 2026-04-17 19:12 | 12.79223 | -60.77105 | 34300 ft | 414 kts | 187° |
| 2026-04-17 19:13 | 12.76314 | -60.77216 | 33750 ft | 416 kts | 187° |
| 2026-04-17 19:13 | 12.73434 | -60.77326 | 33200 ft | 417 kts | 187° |
| 2026-04-17 19:13 | 12.70511 | -60.77437 | 32649 ft | 419 kts | 187° |
| 2026-04-17 19:13 | 12.67587 | -60.77549 | 32088 ft | 421 kts | 187° |
| 2026-04-17 19:14 | 12.64646 | -60.77661 | 31524 ft | 424 kts | 186° |
| 2026-04-17 19:14 | 12.61715 | -60.77773 | 30961 ft | 427 kts | 186° |
| 2026-04-17 19:14 | 12.58732 | -60.77887 | 30393 ft | 430 kts | 186° |
| 2026-04-17 19:14 | 12.55725 | -60.78001 | 29820 ft | 433 kts | 186° |
| 2026-04-17 19:15 | 12.52679 | -60.78117 | 29242 ft | 436 kts | 186° |
| 2026-04-17 19:15 | 12.49657 | -60.78232 | 28664 ft | 437 kts | 186° |
| 2026-04-17 19:15 | 12.46590 | -60.78347 | 28083 ft | 437 kts | 186° |
| 2026-04-17 19:15 | 12.43590 | -60.78460 | 27501 ft | 435 kts | 186° |
| 2026-04-17 19:16 | 12.40568 | -60.78574 | 26920 ft | 431 kts | 186° |
| 2026-04-17 19:16 | 12.37573 | -60.78686 | 26346 ft | 429 kts | 185° |
| 2026-04-17 19:16 | 12.34570 | -60.78800 | 25768 ft | 426 kts | 186° |
| 2026-04-17 19:16 | 12.31641 | -60.78910 | 25206 ft | 424 kts | 185° |
| 2026-04-17 19:17 | 12.28695 | -60.79022 | 24640 ft | 422 kts | 185° |
| 2026-04-17 19:17 | 12.25767 | -60.79132 | 24085 ft | 420 kts | 185° |
| 2026-04-17 19:17 | 12.22852 | -60.79242 | 23529 ft | 417 kts | 185° |
| 2026-04-17 19:17 | 12.19933 | -60.79352 | 22966 ft | 416 kts | 185° |
| 2026-04-17 19:18 | 12.17024 | -60.79462 | 22411 ft | 414 kts | 185° |
| 2026-04-17 19:18 | 12.14146 | -60.79572 | 21863 ft | 412 kts | 184° |
| 2026-04-17 19:18 | 12.11280 | -60.79680 | 21311 ft | 411 kts | 184° |
| 2026-04-17 19:18 | 12.08398 | -60.79789 | 20759 ft | 408 kts | 184° |
| 2026-04-17 19:19 | 12.05534 | -60.79897 | 20211 ft | 407 kts | 184° |
| 2026-04-17 19:19 | 12.02717 | -60.80003 | 19674 ft | 405 kts | 184° |
| 2026-04-17 19:19 | 11.99923 | -60.80240 | 19136 ft | 401 kts | 193° |
| 2026-04-17 19:19 | 11.97225 | -60.80950 | 18586 ft | 398 kts | 197° |
| 2026-04-17 19:20 | 11.94545 | -60.81700 | 18054 ft | 397 kts | 197° |
| 2026-04-17 19:20 | 11.91892 | -60.82436 | 17529 ft | 396 kts | 197° |
| 2026-04-17 19:20 | 11.89205 | -60.83181 | 17003 ft | 394 kts | 197° |
| 2026-04-17 19:20 | 11.86572 | -60.83910 | 16489 ft | 391 kts | 196° |
| 2026-04-17 19:21 | 11.83951 | -60.84635 | 15977 ft | 387 kts | 196° |
| 2026-04-17 19:21 | 11.81314 | -60.85363 | 15424 ft | 381 kts | 195° |
| 2026-04-17 19:21 | 11.78761 | -60.86068 | 14861 ft | 378 kts | 195° |
| 2026-04-17 19:21 | 11.76233 | -60.86766 | 14303 ft | 373 kts | 195° |
| 2026-04-17 19:22 | 11.74024 | -60.87375 | 13808 ft | 365 kts | 195° |
| 2026-04-17 19:22 | 11.71748 | -60.87997 | 13332 ft | 354 kts | 194° |
| 2026-04-17 19:22 | 11.69375 | -60.88652 | 12762 ft | 344 kts | 194° |
| 2026-04-17 19:22 | 11.67104 | -60.89278 | 12230 ft | 333 kts | 194° |
| 2026-04-17 19:23 | 11.64873 | -60.89893 | 11795 ft | 322 kts | 194° |
| 2026-04-17 19:23 | 11.61015 | -60.90965 | 11016 ft | 309 kts | 194° |
| 2026-04-17 19:23 | 11.58966 | -60.91528 | 10631 ft | 305 kts | 194° |
| 2026-04-17 19:24 | 11.56933 | -60.92086 | 10222 ft | 301 kts | 194° |
| 2026-04-17 19:24 | 11.54910 | -60.92641 | 9825 ft | 296 kts | 194° |
| 2026-04-17 19:24 | 11.52913 | -60.93190 | 9434 ft | 292 kts | 194° |
| 2026-04-17 19:24 | 11.50938 | -60.93731 | 9044 ft | 289 kts | 194° |
| 2026-04-17 19:25 | 11.48996 | -60.94264 | 8664 ft | 289 kts | 194° |
| 2026-04-17 19:25 | 11.47030 | -60.94803 | 8273 ft | 290 kts | 193° |
| 2026-04-17 19:25 | 11.45090 | -60.95334 | 7888 ft | 289 kts | 193° |
| 2026-04-17 19:25 | 11.43139 | -60.95869 | 7512 ft | 287 kts | 193° |
| 2026-04-17 19:26 | 11.41210 | -60.96398 | 7141 ft | 287 kts | 193° |
| 2026-04-17 19:26 | 11.39271 | -60.96930 | 6747 ft | 285 kts | 193° |
| 2026-04-17 19:26 | 11.37325 | -60.97463 | 6369 ft | 283 kts | 193° |
| 2026-04-17 19:26 | 11.35421 | -60.97985 | 5998 ft | 281 kts | 193° |
| 2026-04-17 19:27 | 11.33539 | -60.98500 | 5634 ft | 281 kts | 192° |
| 2026-04-17 19:27 | 11.31622 | -60.99026 | 5247 ft | 280 kts | 192° |
| 2026-04-17 19:27 | 11.29759 | -60.99536 | 4855 ft | 274 kts | 192° |
| 2026-04-17 19:27 | 11.27942 | -61.00036 | 4512 ft | 263 kts | 192° |
| 2026-04-17 19:28 | 11.26218 | -61.00488 | 4180 ft | 253 kts | 187° |
| 2026-04-17 19:28 | 11.24506 | -61.00673 | 3870 ft | 243 kts | 180° |
| 2026-04-17 19:28 | 11.22803 | -61.00790 | 3521 ft | 237 kts | 180° |
| 2026-04-17 19:28 | 11.21181 | -61.00908 | 3222 ft | 231 kts | 180° |
| 2026-04-17 19:29 | 11.19594 | -61.01023 | 2924 ft | 225 kts | 179° |
| 2026-04-17 19:29 | 11.18057 | -61.00933 | 2622 ft | 213 kts | 158° |
| 2026-04-17 19:29 | 11.16847 | -61.00160 | 2336 ft | 200 kts | 128° |
| 2026-04-17 19:29 | 11.16211 | -60.98999 | 2297 ft | 178 kts | 104° |
| 2026-04-17 19:30 | 11.16019 | -60.97823 | 2326 ft | 162 kts | 95° |
| 2026-04-17 19:30 | 11.15932 | -60.96681 | 2301 ft | 161 kts | 94° |
| 2026-04-17 19:30 | 11.15847 | -60.95521 | 2180 ft | 165 kts | 94° |
| 2026-04-17 19:30 | 11.15763 | -60.94381 | 2007 ft | 160 kts | 94° |
| 2026-04-17 19:31 | 11.15680 | -60.93227 | 1763 ft | 162 kts | 94° |
| 2026-04-17 19:31 | 11.15599 | -60.92112 | 1572 ft | 160 kts | 94° |
| 2026-04-17 19:31 | 11.15517 | -60.90968 | 1344 ft | 160 kts | 94° |
| 2026-04-17 19:31 | 11.15436 | -60.89843 | 1132 ft | 160 kts | 95° |
| 2026-04-17 19:32 | 11.15356 | -60.88731 | 913 ft | 149 kts | 94° |
| 2026-04-17 19:32 | 11.15287 | -60.87777 | 775 ft | 129 kts | 95° |
| 2026-04-17 19:32 | 11.15222 | -60.86883 | 573 ft | 124 kts | 94° |
| 2026-04-17 19:32 | 11.15159 | -60.86006 | 420 ft | 122 kts | 95° |
| 2026-04-17 19:33 | 11.15107 | -60.85142 | 277 ft | 122 kts | 95° |
| 2026-04-17 19:33 | 11.15050 | -60.84275 | 98 ft | 121 kts | 95° |
| 2026-04-17 19:33 | 11.14989 | -60.83465 | 49 ft | 101 kts | 96° |
| 2026-04-17 19:33 | 11.14947 | -60.82962 | 48 ft | 12 kts | 97° |
| 2026-04-17 19:34 | 11.14928 | -60.82858 | 47 ft | 13 kts | 129° |
| 2026-04-17 19:34 | 11.14941 | -60.82867 | 47 ft | 9 kts | 281° |
| 2026-04-17 19:34 | 11.14949 | -60.82959 | 47 ft | 28 kts | 274° |
| 2026-04-17 19:34 | 11.14969 | -60.83263 | 49 ft | 48 kts | 272° |
| 2026-04-17 19:35 | 11.14994 | -60.83605 | 48 ft | 49 kts | 277° |
| 2026-04-17 19:35 | 11.15060 | -60.83825 | 46 ft | 18 kts | 314° |
| 2026-04-17 19:35 | 11.15117 | -60.83949 | 45 ft | 22 kts | 278° |
| 2026-04-17 19:35 | 11.15167 | -60.83969 | 45 ft | 0 kts | 92° |